createdAt,value
2019-02-08T00:00:58.171Z,97752.37
2019-02-08T00:03:31.312Z,97764.55
2019-02-08T00:06:04.932Z,97766.23
2019-02-08T00:08:38.090Z,97771.89
2019-02-08T00:11:11.282Z,97765.75
2019-02-08T00:13:44.680Z,97766.42
2019-02-08T00:16:17.949Z,97782.08
2019-02-08T00:18:51.784Z,97761.79
2019-02-08T00:21:25.302Z,97767.20
2019-02-08T00:23:58.658Z,97768.57
2019-02-08T00:26:32.963Z,97776.17
2019-02-08T00:29:06.694Z,97773.09
2019-02-08T00:31:42.676Z,97772.92
2019-02-08T00:35:07.629Z,97777.90
2019-02-08T00:37:40.959Z,97777.90
2019-02-08T00:40:15.678Z,97776.61
2019-02-08T00:42:49.305Z,97781.84
2019-02-08T00:45:26.988Z,97784.57
2019-02-08T00:48:00.296Z,97787.31
2019-02-08T00:50:33.740Z,97794.17
2019-02-08T00:53:07.281Z,97794.17
2019-02-08T00:55:40.341Z,97805.95
2019-02-08T00:58:13.763Z,97817.17
2019-02-08T01:00:47.957Z,97817.17
2019-02-08T01:03:20.086Z,97807.23
2019-02-08T01:05:51.788Z,97807.23
2019-02-08T01:08:26.314Z,97806.81
2019-02-08T01:10:59.729Z,97806.81
2019-02-08T01:13:32.944Z,97805.12
2019-02-08T01:16:07.288Z,97812.20
2019-02-08T01:18:40.313Z,97807.32
2019-02-08T01:21:13.707Z,97807.32
2019-02-08T01:23:46.940Z,97802.70
2019-02-08T01:26:20.113Z,97807.58
2019-02-08T01:28:53.300Z,97808.80
2019-02-08T01:31:26.683Z,97819.91
2019-02-08T01:34:00.107Z,97819.91
2019-02-08T01:36:33.285Z,97810.50
2019-02-08T01:39:08.945Z,97822.65
2019-02-08T01:41:42.125Z,97808.87
2019-02-08T01:44:15.336Z,97816.33
2019-02-08T01:46:48.763Z,97817.88
2019-02-08T01:49:22.197Z,97814.36
2019-02-08T01:51:55.664Z,97819.33
2019-02-08T01:54:28.952Z,97819.33
2019-02-08T01:57:00.860Z,97813.83
2019-02-08T01:59:34.346Z,97824.53
2019-02-08T02:02:07.641Z,97836.85
2019-02-08T02:04:40.898Z,97836.85
2019-02-08T02:07:14.087Z,97853.62
2019-02-08T02:09:47.336Z,97855.88
2019-02-08T02:12:20.630Z,97862.73
2019-02-08T02:14:53.936Z,97865.11
2019-02-08T02:17:27.211Z,97860.01
2019-02-08T02:20:02.614Z,97855.38
2019-02-08T02:22:35.936Z,97855.38
2019-02-08T02:25:10.974Z,97855.89
2019-02-08T02:27:43.076Z,97851.71
2019-02-08T02:30:17.691Z,97856.08
2019-02-08T02:32:50.993Z,97858.91
2019-02-08T02:35:23.484Z,97859.26
2019-02-08T02:37:56.918Z,97864.47
2019-02-08T02:40:28.869Z,97865.33
2019-02-08T02:43:01.959Z,97866.61
2019-02-08T02:45:38.287Z,97862.34
2019-02-08T02:48:14.354Z,97854.20
2019-02-08T02:50:47.618Z,97855.64
2019-02-08T02:53:20.951Z,97855.64
2019-02-08T02:55:54.149Z,97848.03
2019-02-08T02:58:27.650Z,97844.17
2019-02-08T03:01:02.960Z,97844.17
2019-02-08T03:03:36.956Z,97850.26
2019-02-08T03:06:10.267Z,97858.64
2019-02-08T03:08:43.348Z,97852.98
2019-02-08T03:11:16.781Z,97852.05
2019-02-08T03:13:49.958Z,97853.95
2019-02-08T03:16:21.686Z,97862.77
2019-02-08T03:18:54.891Z,97862.77
2019-02-08T03:21:28.108Z,97873.81
2019-02-08T03:24:01.349Z,97877.16
2019-02-08T03:26:34.778Z,97877.16
2019-02-08T03:29:08.163Z,97870.56
2019-02-08T03:31:41.427Z,97864.48
2019-02-08T03:34:14.795Z,97864.48
2019-02-08T03:36:48.268Z,97868.14
2019-02-08T03:39:21.323Z,97867.22
2019-02-08T03:41:54.692Z,97867.22
2019-02-08T03:44:29.499Z,97873.96
2019-02-08T03:47:02.775Z,97867.13
2019-02-08T03:49:35.953Z,97857.86
2019-02-08T03:52:07.872Z,97869.17
2019-02-08T03:54:40.948Z,97874.49
2019-02-08T03:57:12.846Z,97884.44
2019-02-08T03:59:46.044Z,97895.22
2019-02-08T04:02:17.716Z,97882.95
2019-02-08T04:04:51.283Z,97890.05
2019-02-08T04:07:24.330Z,97879.97
2019-02-08T04:09:57.720Z,97879.97
2019-02-08T04:12:30.956Z,97879.55
2019-02-08T04:15:04.292Z,97879.63
2019-02-08T04:17:37.669Z,97874.80
2019-02-08T04:20:12.322Z,97875.76
2019-02-08T04:22:45.668Z,97883.73
2019-02-08T04:25:19.690Z,97882.43
2019-02-08T04:27:53.287Z,97878.77
2019-02-08T04:30:29.150Z,97886.69
2019-02-08T04:33:02.718Z,97888.33
2019-02-08T04:35:36.294Z,97888.33
2019-02-08T04:38:09.558Z,97891.58
2019-02-08T04:40:42.955Z,97891.58
2019-02-08T04:43:16.103Z,97883.77
2019-02-08T04:45:49.283Z,97902.77
2019-02-08T04:48:22.317Z,97903.90
2019-02-08T04:50:55.702Z,97916.19
2019-02-08T04:53:28.940Z,97916.19
2019-02-08T04:56:02.350Z,97914.41
2019-02-08T04:58:35.981Z,97908.66
2019-02-08T05:01:07.790Z,97908.30
2019-02-08T05:03:41.124Z,97900.03
2019-02-08T05:06:14.297Z,97916.73
2019-02-08T05:08:47.694Z,97908.66
2019-02-08T05:11:21.089Z,97912.21
2019-02-08T05:13:52.879Z,97912.21
2019-02-08T05:16:26.142Z,97911.11
2019-02-08T05:18:59.303Z,97914.98
2019-02-08T05:21:32.687Z,97911.97
2019-02-08T05:24:06.304Z,97911.97
2019-02-08T05:26:39.698Z,97919.15
2019-02-08T05:29:13.082Z,97921.83
2019-02-08T05:31:46.115Z,97913.34
2019-02-08T05:34:17.865Z,97921.38
2019-02-08T05:36:50.962Z,97911.02
2019-02-08T05:39:22.676Z,97901.70
2019-02-08T05:41:55.931Z,97909.59
2019-02-08T05:44:29.109Z,97913.25
2019-02-08T05:47:01.022Z,97914.80
2019-02-08T05:49:34.278Z,97914.80
2019-02-08T05:52:07.709Z,97912.06
2019-02-08T05:54:41.081Z,97917.30
2019-02-08T05:57:12.864Z,97914.73
2019-02-08T05:59:45.952Z,97909.41
2019-02-08T06:02:19.268Z,97898.36
2019-02-08T06:04:52.319Z,97908.91
2019-02-08T06:07:25.698Z,97908.91
2019-02-08T06:09:59.072Z,97917.72
2019-02-08T06:12:32.288Z,97911.23
2019-02-08T06:15:07.098Z,97913.28
2019-02-08T06:17:40.282Z,97915.25
2019-02-08T06:20:16.284Z,97912.95
2019-02-08T06:22:49.655Z,97905.41
2019-02-08T06:25:23.345Z,97905.41
2019-02-08T06:27:56.760Z,97916.20
2019-02-08T06:30:30.138Z,97914.05
2019-02-08T06:33:03.118Z,97909.61
2019-02-08T06:35:36.360Z,97905.66
2019-02-08T06:38:09.885Z,97909.59
2019-02-08T06:40:45.951Z,97911.58
2019-02-08T06:43:17.788Z,97921.78
2019-02-08T06:45:50.943Z,97922.82
2019-02-08T06:48:24.275Z,97922.41
2019-02-08T06:50:57.696Z,97929.67
2019-02-08T06:53:31.268Z,97929.67
2019-02-08T06:56:04.351Z,97928.81
2019-02-08T06:58:46.517Z,97928.81
2019-02-08T07:01:32.860Z,97939.44
2019-02-08T07:04:23.660Z,97943.22
2019-02-08T07:07:18.873Z,97945.10
2019-02-08T07:10:07.874Z,97947.94
2019-02-08T07:13:00.569Z,97944.26
2019-02-08T07:15:46.944Z,97949.83
2019-02-08T07:18:38.662Z,97951.44
2019-02-08T07:21:26.298Z,97948.02
2019-02-08T07:24:30.521Z,97932.13
2019-02-08T07:27:15.716Z,97932.13
2019-02-08T07:30:10.306Z,97946.45
2019-02-08T07:33:01.280Z,97946.45
2019-02-08T07:35:56.428Z,97934.36
2019-02-08T07:38:46.306Z,97934.36
2019-02-08T07:41:34.655Z,97955.98
2019-02-08T07:44:36.640Z,97955.98
2019-02-08T07:47:37.877Z,97954.01
2019-02-08T07:50:30.362Z,97943.59
2019-02-08T07:53:21.292Z,97942.22
2019-02-08T07:56:07.100Z,97945.46
2019-02-08T07:59:05.272Z,97945.89
2019-02-08T08:01:49.609Z,97942.98
2019-02-08T08:04:28.893Z,97942.98
2019-02-08T08:07:18.490Z,97950.20
2019-02-08T08:10:13.644Z,97947.80
2019-02-08T08:13:05.382Z,97939.41
2019-02-08T08:16:10.095Z,97945.70
2019-02-08T08:19:22.276Z,97939.41
2019-02-08T08:22:05.598Z,97943.97
2019-02-08T08:24:56.518Z,97943.97
2019-02-08T08:27:40.774Z,97932.40
2019-02-08T08:30:24.683Z,97932.40
2019-02-08T08:33:32.676Z,97941.22
2019-02-08T08:36:35.920Z,97945.75
2019-02-08T08:40:20.943Z,97956.71
2019-02-08T08:43:54.689Z,97959.84
2019-02-08T08:47:48.291Z,97959.19
2019-02-08T08:51:02.300Z,97950.50
2019-02-08T08:54:53.285Z,97950.50
2019-02-08T08:58:37.768Z,97959.78
2019-02-08T09:02:15.920Z,97959.78
2019-02-08T09:05:17.634Z,97955.74
2019-02-08T09:08:52.936Z,97958.25
2019-02-08T09:12:23.338Z,97960.21
2019-02-08T09:15:42.275Z,97958.66
2019-02-08T09:19:06.666Z,97948.75
2019-02-08T09:22:48.583Z,97948.75
2019-02-08T09:26:03.787Z,97954.22
2019-02-08T09:29:51.260Z,97937.43
2019-02-08T09:33:48.692Z,97930.42
2019-02-08T09:40:29.283Z,97926.58
2019-02-08T09:44:00.285Z,97919.03
2019-02-08T09:47:36.121Z,97929.67
2019-02-08T09:51:18.329Z,97929.67
2019-02-08T09:55:05.570Z,97919.28
2019-02-08T09:58:32.667Z,97923.89
2019-02-08T10:02:04.281Z,97923.66
2019-02-08T10:05:31.273Z,97919.94
2019-02-08T10:09:17.287Z,97926.42
2019-02-08T10:12:44.270Z,97926.42
2019-02-08T10:16:24.292Z,97919.98
2019-02-08T10:19:59.312Z,97918.63
2019-02-08T10:23:59.881Z,97907.16
2019-02-08T10:27:08.313Z,97907.16
2019-02-08T10:30:40.941Z,97917.36
2019-02-08T10:33:44.569Z,97917.36
2019-02-08T10:37:01.321Z,97912.20
2019-02-08T10:40:33.090Z,97920.44
2019-02-08T10:46:22.941Z,97920.50
2019-02-08T10:49:41.106Z,97906.00
2019-02-08T10:53:23.378Z,97907.59
2019-02-08T10:56:58.276Z,97906.61
2019-02-08T11:00:20.269Z,97899.81
2019-02-08T11:04:00.269Z,97897.08
2019-02-08T11:07:48.463Z,97891.06
2019-02-08T11:11:16.288Z,97891.06
2019-02-08T11:15:01.703Z,97891.36
2019-02-08T11:18:52.684Z,97891.36
2019-02-08T11:21:27.009Z,97882.70
2019-02-08T11:24:00.629Z,97876.34
2019-02-08T11:26:34.075Z,97884.61
2019-02-08T11:29:07.531Z,97884.61
2019-02-08T11:31:40.778Z,97875.84
2019-02-08T11:34:14.274Z,97868.55
2019-02-08T11:36:47.694Z,97864.42
2019-02-08T11:39:22.247Z,97864.42
2019-02-08T11:41:55.725Z,97844.99
2019-02-08T11:44:29.257Z,97844.99
2019-02-08T11:47:02.695Z,97849.23
2019-02-08T11:49:37.075Z,97849.23
2019-02-08T11:52:10.322Z,97866.81
2019-02-08T11:54:43.679Z,97847.80
2019-02-08T11:57:17.098Z,97857.92
2019-02-08T11:59:50.544Z,97851.67
2019-02-08T12:02:24.241Z,97859.03
2019-02-08T12:04:57.689Z,97844.84
2019-02-08T12:07:31.134Z,97844.84
2019-02-08T12:10:04.729Z,97831.95
2019-02-08T12:12:38.162Z,97831.95
2019-02-08T12:15:14.263Z,97842.68
2019-02-08T12:17:48.372Z,97838.13
2019-02-08T12:20:21.728Z,97838.13
2019-02-08T12:22:54.935Z,97824.94
2019-02-08T12:25:26.855Z,97821.56
2019-02-08T12:28:00.375Z,97831.44
2019-02-08T12:30:37.398Z,97849.06
2019-02-08T12:33:11.274Z,97836.37
2019-02-08T12:35:44.644Z,97821.66
2019-02-08T12:40:06.931Z,97828.19
2019-02-08T12:42:40.390Z,97828.19
2019-02-08T12:45:14.731Z,97814.28
2019-02-08T12:47:48.278Z,97813.27
2019-02-08T12:50:22.333Z,97809.62
2019-02-08T12:52:55.768Z,97804.31
2019-02-08T12:55:29.286Z,97804.31
2019-02-08T12:58:02.869Z,97806.42
2019-02-08T13:00:36.370Z,97806.42
2019-02-08T13:03:09.867Z,97797.39
2019-02-08T13:05:41.797Z,97796.35
2019-02-08T13:08:15.149Z,97796.35
2019-02-08T13:10:48.554Z,97787.16
2019-02-08T13:13:21.956Z,97784.34
2019-02-08T13:15:55.395Z,97779.80
2019-02-08T13:18:28.799Z,97784.89
2019-02-08T13:21:02.257Z,97763.44
2019-02-08T13:23:35.684Z,97766.02
2019-02-08T13:26:09.097Z,97766.02
2019-02-08T13:28:42.402Z,97770.97
2019-02-08T13:31:15.772Z,97765.53
2019-02-08T13:33:49.112Z,97765.53
2019-02-08T13:36:22.304Z,97758.27
2019-02-08T13:38:55.780Z,97751.91
2019-02-08T13:41:29.125Z,97758.23
2019-02-08T13:44:02.276Z,97749.20
2019-02-08T13:46:35.681Z,97737.08
2019-02-08T13:49:08.952Z,97737.08
2019-02-08T13:51:42.279Z,97737.01
2019-02-08T13:54:15.741Z,97733.38
2019-02-08T13:56:49.129Z,97733.98
2019-02-08T13:59:22.675Z,97733.98
2019-02-08T14:01:55.949Z,97724.50
2019-02-08T14:04:30.308Z,97729.75
2019-02-08T14:07:03.738Z,97737.98
2019-02-08T14:11:40.688Z,97725.05
2019-02-08T14:14:13.959Z,97723.66
2019-02-08T14:16:47.428Z,97723.19
2019-02-08T14:19:20.787Z,97730.01
2019-02-08T14:21:54.284Z,97726.58
2019-02-08T14:24:27.663Z,97738.81
2019-02-08T14:27:08.177Z,97738.81
2019-02-08T14:29:36.252Z,97732.32
2019-02-08T14:32:09.631Z,97739.11
2019-02-08T14:34:43.881Z,97739.11
2019-02-08T14:37:17.413Z,97737.22
2019-02-08T14:39:50.708Z,97740.41
2019-02-08T14:42:24.297Z,97746.67
2019-02-08T14:44:57.792Z,97728.27
2019-02-08T14:47:30.971Z,97728.27
2019-02-08T14:50:02.847Z,97724.70
2019-02-08T14:52:36.106Z,97725.75
2019-02-08T14:55:10.294Z,97730.89
2019-02-08T14:57:43.704Z,97725.52
2019-02-08T15:00:19.763Z,97725.52
2019-02-08T15:02:53.271Z,97717.89
2019-02-08T15:05:26.656Z,97719.03
2019-02-08T15:07:59.945Z,97719.03
2019-02-08T15:10:37.278Z,97718.19
2019-02-08T15:13:11.084Z,97708.69
2019-02-08T15:15:44.339Z,97704.86
2019-02-08T15:18:18.732Z,97703.17
2019-02-08T15:20:52.283Z,97701.88
2019-02-08T15:23:25.649Z,97705.08
2019-02-08T15:25:59.280Z,97705.08
2019-02-08T15:28:32.865Z,97686.88
2019-02-08T15:31:06.565Z,97686.88
2019-02-08T15:33:39.952Z,97698.23
2019-02-08T15:36:12.013Z,97705.28
2019-02-08T15:38:45.271Z,97699.13
2019-02-08T15:41:18.661Z,97692.06
2019-02-08T15:43:51.937Z,97692.06
2019-02-08T15:46:23.850Z,97693.44
2019-02-08T15:48:57.280Z,97695.68
2019-02-08T15:51:30.706Z,97690.70
2019-02-08T15:54:04.148Z,97695.97
2019-02-08T15:56:37.995Z,97681.56
2019-02-08T15:59:10.002Z,97681.56
2019-02-08T16:01:43.588Z,97673.75
2019-02-08T16:04:16.941Z,97669.13
2019-02-08T16:06:51.377Z,97662.82
2019-02-08T16:09:24.691Z,97664.72
2019-02-08T16:11:58.246Z,97664.72
2019-02-08T16:14:31.679Z,97665.49
2019-02-08T16:17:04.956Z,97665.49
2019-02-08T16:19:38.682Z,97660.28
2019-02-08T16:22:12.153Z,97660.28
2019-02-08T16:24:45.585Z,97662.98
2019-02-08T16:27:18.893Z,97664.64
2019-02-08T16:29:52.064Z,97659.58
2019-02-08T16:32:24.118Z,97666.48
2019-02-08T16:36:29.267Z,97677.70
2019-02-08T16:39:02.678Z,97678.14
2019-02-08T16:41:36.707Z,97678.14
2019-02-08T16:44:10.346Z,97676.02
2019-02-08T16:46:46.198Z,97673.91
2019-02-08T16:49:19.679Z,97676.84
2019-02-08T16:51:54.306Z,97671.22
2019-02-08T16:54:27.702Z,97670.98
2019-02-08T16:57:01.095Z,97670.98
2019-02-08T16:59:33.278Z,97669.17
2019-02-08T17:02:06.944Z,97660.02
2019-02-08T17:04:39.000Z,97646.41
2019-02-08T17:07:12.132Z,97646.41
2019-02-08T17:09:45.340Z,97655.26
2019-02-08T17:12:18.748Z,97656.44
2019-02-08T17:14:52.271Z,97651.88
2019-02-08T17:17:25.643Z,97647.34
2019-02-08T17:19:58.949Z,97647.34
2019-02-08T17:22:32.275Z,97649.12
2019-02-08T17:25:05.702Z,97652.28
2019-02-08T17:27:38.942Z,97652.28
2019-02-08T17:30:15.862Z,97640.34
2019-02-08T17:32:49.288Z,97645.84
2019-02-08T17:35:23.270Z,97641.69
2019-02-08T17:37:56.676Z,97641.69
2019-02-08T17:40:32.669Z,97636.96
2019-02-08T17:43:06.785Z,97632.94
2019-02-08T17:45:40.087Z,97625.97
2019-02-08T17:48:16.319Z,97627.58
2019-02-08T17:50:49.715Z,97607.50
2019-02-08T17:53:22.955Z,97607.50
2019-02-08T17:55:54.881Z,97624.02
2019-02-08T17:58:28.071Z,97622.88
2019-02-08T18:01:00.571Z,97621.94
2019-02-08T18:03:33.828Z,97613.53
2019-02-08T18:06:07.282Z,97613.53
2019-02-08T18:08:40.289Z,97609.88
2019-02-08T18:11:13.726Z,97608.81
2019-02-08T18:13:46.948Z,97608.81
2019-02-08T18:16:20.278Z,97609.11
2019-02-08T18:18:53.640Z,97603.28
2019-02-08T18:21:26.933Z,97603.28
2019-02-08T18:24:00.284Z,97604.35
2019-02-08T18:26:33.551Z,97590.91
2019-02-08T18:29:06.899Z,97590.91
2019-02-08T18:31:40.125Z,97593.06
2019-02-08T18:34:13.646Z,97578.95
2019-02-08T18:36:49.426Z,97578.95
2019-02-08T18:39:22.746Z,97586.59
2019-02-08T18:41:56.084Z,97586.19
2019-02-08T18:44:29.281Z,97585.16
2019-02-08T18:47:02.694Z,97580.02
2019-02-08T18:49:35.938Z,97580.02
2019-02-08T18:52:09.283Z,97574.99
2019-02-08T18:54:42.651Z,97561.28
2019-02-08T18:57:15.952Z,97561.28
2019-02-08T18:59:47.970Z,97562.30
2019-02-08T19:02:21.327Z,97552.86
2019-02-08T19:04:54.778Z,97547.85
2019-02-08T19:07:28.122Z,97547.85
2019-02-08T19:10:01.339Z,97539.30
2019-02-08T19:12:34.781Z,97521.20
2019-02-08T19:15:09.765Z,97521.20
2019-02-08T19:17:43.275Z,97511.53
2019-02-08T19:20:19.658Z,97516.63
2019-02-08T19:22:53.297Z,97509.31
2019-02-08T19:25:33.269Z,97500.02
2019-02-08T19:28:07.310Z,97498.41
2019-02-08T19:30:41.762Z,97505.17
2019-02-08T19:33:16.307Z,97495.39
2019-02-08T19:35:50.980Z,97493.41
2019-02-08T19:38:22.983Z,97490.14
2019-02-08T19:40:55.265Z,97493.38
2019-02-08T19:43:29.188Z,97481.20
2019-02-08T19:46:03.288Z,97481.20
2019-02-08T19:48:37.293Z,97471.58
2019-02-08T19:51:11.244Z,97469.13
2019-02-08T19:53:45.336Z,97477.03
2019-02-08T19:56:19.280Z,97477.03
2019-02-08T19:58:53.296Z,97466.97
2019-02-08T20:01:27.714Z,97459.06
2019-02-08T20:04:02.257Z,97459.06
2019-02-08T20:06:35.939Z,97445.32
2019-02-08T20:09:12.284Z,97445.32
2019-02-08T20:11:47.317Z,97445.04
2019-02-08T20:14:21.120Z,97446.09
2019-02-08T20:16:54.754Z,97434.48
2019-02-08T20:19:28.271Z,97434.48
2019-02-08T20:22:01.477Z,97427.89
2019-02-08T20:24:34.937Z,97424.26
2019-02-08T20:27:06.861Z,97424.26
2019-02-08T20:29:40.276Z,97427.17
2019-02-08T20:32:13.940Z,97422.89
2019-02-08T20:34:47.322Z,97418.27
2019-02-08T20:37:21.923Z,97420.41
2019-02-08T20:39:55.322Z,97424.97
2019-02-08T20:42:28.859Z,97436.20
2019-02-08T20:45:02.278Z,97436.20
2019-02-08T20:47:36.938Z,97420.93
2019-02-08T20:50:10.649Z,97424.34
2019-02-08T20:52:43.943Z,97424.34
2019-02-08T20:55:16.276Z,97424.03
2019-02-08T20:57:49.928Z,97419.91
2019-02-08T21:00:30.262Z,97419.91
2019-02-08T21:03:04.591Z,97414.89
2019-02-08T21:05:37.934Z,97408.02
2019-02-08T21:08:10.273Z,97400.83
2019-02-08T21:10:43.937Z,97400.27
2019-02-08T21:13:16.278Z,97401.64
2019-02-08T21:15:49.309Z,97402.08
2019-02-08T21:18:22.776Z,97400.83
2019-02-08T21:20:56.262Z,97395.97
2019-02-08T21:23:29.709Z,97374.36
2019-02-08T21:26:26.669Z,97371.62
2019-02-08T21:29:00.150Z,97371.62
2019-02-08T21:31:33.314Z,97363.53
2019-02-08T21:34:06.991Z,97364.02
2019-02-08T21:36:40.274Z,97347.80
2019-02-08T21:39:13.939Z,97336.96
2019-02-08T21:41:48.283Z,97337.41
2019-02-08T21:44:21.938Z,97328.42
2019-02-08T21:46:55.300Z,97328.42
2019-02-08T21:49:28.717Z,97323.98
2019-02-08T21:52:01.935Z,97323.98
2019-02-08T21:54:35.282Z,97332.22
2019-02-08T21:57:08.674Z,97320.30
2019-02-08T21:59:42.108Z,97320.30
2019-02-08T22:02:15.294Z,97308.53
2019-02-08T22:04:48.694Z,97300.28
2019-02-08T22:07:22.111Z,97300.28
2019-02-08T22:09:54.005Z,97290.81
2019-02-08T22:12:26.939Z,97290.81
2019-02-08T22:15:00.275Z,97283.78
2019-02-08T22:17:33.625Z,97267.44
2019-02-08T22:20:09.320Z,97267.44
2019-02-08T22:22:42.731Z,97264.05
2019-02-08T22:25:18.625Z,97260.54
2019-02-08T22:27:53.274Z,97250.02
2019-02-08T22:30:27.290Z,97228.47
2019-02-08T22:33:01.089Z,97228.47
2019-02-08T22:35:34.334Z,97234.42
2019-02-08T22:38:27.272Z,97229.69
2019-02-08T22:41:00.948Z,97214.13
2019-02-08T22:43:34.128Z,97214.13
2019-02-08T22:46:07.656Z,97215.02
2019-02-08T22:48:41.081Z,97209.55
2019-02-08T22:51:14.282Z,97202.19
2019-02-08T22:53:47.657Z,97201.45
2019-02-08T22:56:21.135Z,97201.61
2019-02-08T22:58:53.031Z,97201.61
2019-02-08T23:01:34.413Z,97199.47
2019-02-08T23:04:09.761Z,97198.55
2019-02-08T23:06:45.146Z,97186.94
2019-02-08T23:09:25.334Z,97170.88
2019-02-08T23:11:58.902Z,97170.88
2019-02-08T23:14:32.779Z,97158.81
2019-02-08T23:17:06.299Z,97160.36
2019-02-08T23:19:39.739Z,97163.70
2019-02-08T23:22:13.775Z,97170.28
2019-02-08T23:24:47.067Z,97159.27
2019-02-08T23:27:19.024Z,97158.80
2019-02-08T23:29:52.326Z,97148.27
2019-02-08T23:32:25.667Z,97146.13
2019-02-08T23:34:59.126Z,97135.60
2019-02-08T23:37:32.289Z,97128.38
2019-02-08T23:40:06.323Z,97143.67
2019-02-08T23:42:39.702Z,97142.45
2019-02-08T23:45:13.700Z,97140.02
2019-02-08T23:47:47.128Z,97140.02
2019-02-08T23:50:20.697Z,97128.54
2019-02-08T23:52:54.267Z,97133.41
2019-02-08T23:55:28.294Z,97123.88
2019-02-08T23:58:01.789Z,97126.31
